Kelly Springs, Alabama
Current Conditions -  °F | °C
As of 9:53 PM on Saturday 20 Dec 2014 (Local Time) from KDHN Reporting Station
Overcast Overcast  
Wind Chill: 52°   Ceiling: 4100
Heat Index: 52°   Visibility: 10mi
Dew Point: 50°   Wind: 8mph
Humidity: 93%   Direction: 40°NE
Pressure: 30.17"   Gusts: NA
Location:  31.2035°N, 85.4998°W
Report Text: KDHN 210353Z AUTO 04007KT 10SM FEW008 OVC041 11/10 A3017 RMK AO2 SLP215 T01110100
Loading
Personal Weather Stations






























Interactive Weather Map New forecast layout! Learn more

10-Day Weather Forecast

Advertisements
Track Severe Weather on mobile